Clarkson Valley, Missouri
Current Conditions -  °F | °C
As of 4:54 PM on Tuesday 27 Jan 2015 (Local Time) from KSUS Reporting Station
Clear Clear  
Wind Chill: 38°   Ceiling: Unl
Heat Index: 43°   Visibility: 10mi
Dew Point: 31°   Wind: 8mph
Humidity: 62%   Direction: 60°ENE
Pressure: 30.18"   Gusts: NA
Location:  38.6517°N, 90.5361°W
Report Text: KSUS 272254Z 06007KT 10SM CLR 06/M01 A3018 RMK AO2 SLP225 T00611006
Loading
Personal Weather Stations






























Interactive Weather Map New forecast layout! Learn more

10-Day Weather Forecast

Advertisements
Track Severe Weather on mobile